Time;durP1;ratioP1;P1;durP2;ratioP2;P2;SDS_P1;SDS_P2;PMS_P1;PMS_P2;Temp;Humidity;BMP_temperature;BMP_pressure;BME280_temperature;BME280_humidity;BME280_pressure;Samples;Min_cycle;Max_cycle;Signal;HPM_P1;HPM_P2
2021/09/10 00:00:07;;;;;;;8.35;7.47;;;;;;;21.93;59.37;97061.66;4972675;28;20045;-77
2021/09/10 00:02:32;;;;;;;7.75;7.05;;;;;;;21.89;59.40;97051.69;4936348;29;20063;-77
2021/09/10 00:04:58;;;;;;;7.38;6.68;;;;;;;21.91;59.27;97053.25;4971193;28;20066;-76
2021/09/10 00:07:24;;;;;;;6.82;6.22;;;;;;;21.98;59.15;97056.16;4971992;28;20394;-77
2021/09/10 00:09:52;;;;;;;8.32;7.50;;;;;;;21.92;59.08;97055.59;4946570;28;20065;-77
2021/09/10 00:12:18;;;;;;;8.27;7.47;;;;;;;22.02;58.88;97060.53;4955690;28;20486;-77
2021/09/10 00:14:44;;;;;;;7.57;6.88;;;;;;;21.96;59.11;97053.84;4956151;28;20042;-77
2021/09/10 00:17:09;;;;;;;7.72;6.60;;;;;;;21.98;58.93;97053.53;4939938;28;20125;-77
2021/09/10 00:19:34;;;;;;;7.50;6.75;;;;;;;21.97;58.84;97055.41;4971374;28;20118;-76
2021/09/10 00:22:00;;;;;;;8.00;6.38;;;;;;;22.04;58.80;97057.53;4939309;28;20035;-77
2021/09/10 00:24:25;;;;;;;7.85;7.15;;;;;;;22.03;58.70;97058.63;4956173;28;20137;-77
2021/09/10 00:26:51;;;;;;;7.57;6.88;;;;;;;22.00;58.82;97048.66;4936067;29;20039;-76
2021/09/10 00:29:16;;;;;;;8.57;7.68;;;;;;;22.05;58.87;97061.72;4952805;29;20457;-76
2021/09/10 00:31:41;;;;;;;7.25;6.65;;;;;;;22.06;58.66;97058.00;4965096;28;20468;-77
2021/09/10 00:34:07;;;;;;;7.07;6.38;;;;;;;22.04;58.68;97060.19;4955571;28;20073;-77
2021/09/10 00:36:32;;;;;;;6.88;6.13;;;;;;;22.03;58.77;97063.94;4955449;28;20482;-77
2021/09/10 00:38:57;;;;;;;7.55;6.60;;;;;;;22.02;58.78;97065.03;4939448;28;20019;-76
2021/09/10 00:41:23;;;;;;;6.93;6.10;;;;;;;22.06;58.83;97069.38;4970147;28;20046;-76
2021/09/10 00:43:48;;;;;;;7.88;6.13;;;;;;;22.01;58.41;97052.88;4940559;28;20368;-77
2021/09/10 00:46:14;;;;;;;7.43;6.72;;;;;;;22.07;58.78;97064.84;4971823;28;20438;-77
2021/09/10 00:48:41;;;;;;;7.90;7.07;;;;;;;21.97;58.73;97063.34;4939433;28;20450;-77
2021/09/10 00:51:06;;;;;;;6.78;6.18;;;;;;;21.96;58.94;97061.03;4939017;28;20488;-76
2021/09/10 00:53:31;;;;;;;7.53;6.40;;;;;;;21.95;59.12;97070.84;4970542;28;20027;-77
2021/09/10 00:55:57;;;;;;;6.80;6.20;;;;;;;21.91;59.22;97061.97;4956131;28;20034;-77
2021/09/10 00:58:22;;;;;;;7.60;6.60;;;;;;;21.99;59.06;97066.47;4972042;28;20035;-77
2021/09/10 01:00:48;;;;;;;6.90;6.22;;;;;;;21.99;58.89;97063.03;4939026;28;20092;-77
2021/09/10 01:03:13;;;;;;;6.75;6.05;;;;;;;21.97;58.86;97076.59;4953403;23;20027;-81
2021/09/10 01:05:43;;;;;;;7.47;6.72;;;;;;;21.87;59.01;97077.75;4987077;28;20536;-82
2021/09/10 01:08:12;;;;;;;7.70;7.00;;;;;;;21.97;59.01;97073.16;4954678;28;20389;-82
2021/09/10 01:10:42;;;;;;;7.22;6.63;;;;;;;21.98;58.61;97072.06;4970230;28;20070;-82
2021/09/10 01:13:07;;;;;;;7.18;5.65;;;;;;;22.06;58.87;97076.56;4971012;28;20085;-82
2021/09/10 01:15:33;;;;;;;7.68;6.97;;;;;;;22.06;58.88;97071.25;4944225;28;20421;-82
2021/09/10 01:17:59;;;;;;;8.05;6.75;;;;;;;22.04;58.98;97068.16;4986556;28;20038;-82
2021/09/10 01:20:24;;;;;;;6.68;5.97;;;;;;;22.05;59.11;97069.69;4957106;28;20557;-82
2021/09/10 01:22:50;;;;;;;7.38;6.68;;;;;;;22.05;59.03;97064.38;4989578;28;20477;-82
2021/09/10 01:25:18;;;;;;;9.32;7.00;;;;;;;22.03;59.20;97062.06;4989899;28;20276;-82
2021/09/10 01:27:48;;;;;;;7.28;6.18;;;;;;;22.12;59.07;97069.19;4989768;28;20096;-82
2021/09/10 01:30:16;;;;;;;9.63;6.43;;;;;;;22.05;58.88;97065.19;4957518;28;20266;-82
2021/09/10 01:32:42;;;;;;;6.88;5.90;;;;;;;22.10;59.14;97071.38;4989907;28;20042;-82
2021/09/10 01:35:08;;;;;;;7.47;5.40;;;;;;;22.02;59.01;97068.47;4970073;28;20030;-82
2021/09/10 01:37:33;;;;;;;5.95;5.45;;;;;;;22.02;59.25;97063.16;4954498;28;20030;-82
2021/09/10 01:39:59;;;;;;;6.95;6.35;;;;;;;21.92;59.13;97070.69;4963512;28;20030;-82
2021/09/10 01:42:24;;;;;;;7.47;6.00;;;;;;;21.97;59.13;97070.50;4973677;28;20437;-81
2021/09/10 01:44:50;;;;;;;7.53;6.78;;;;;;;21.93;59.27;97072.25;4957269;28;20034;-81
2021/09/10 01:47:16;;;;;;;6.80;6.10;;;;;;;21.97;59.11;97071.31;4989287;28;20401;-82
2021/09/10 01:49:41;;;;;;;6.32;5.72;;;;;;;22.06;58.68;97065.94;4989433;28;20117;-82
2021/09/10 01:52:06;;;;;;;7.25;6.00;;;;;;;22.05;58.97;97069.69;4978116;28;20029;-82
2021/09/10 01:54:33;;;;;;;6.43;5.78;;;;;;;21.99;59.08;97063.81;4988831;28;20551;-82
2021/09/10 01:56:58;;;;;;;7.40;6.00;;;;;;;22.10;58.84;97066.09;4989505;28;20354;-82
2021/09/10 01:59:23;;;;;;;6.32;5.72;;;;;;;22.10;58.82;97068.72;4973242;28;20032;-82
2021/09/10 02:01:49;;;;;;;6.10;5.50;;;;;;;22.13;58.63;97062.78;4989468;28;20034;-82
2021/09/10 02:04:14;;;;;;;6.47;5.88;;;;;;;22.11;58.89;97065.00;4972149;28;20456;-82
2021/09/10 02:06:40;;;;;;;7.03;5.78;;;;;;;22.17;58.61;97061.03;4972279;28;20045;-82
2021/09/10 02:09:05;;;;;;;6.35;5.75;;;;;;;22.14;58.75;97062.47;4956644;28;20129;-82
2021/09/10 02:11:31;;;;;;;6.75;6.15;;;;;;;22.14;58.85;97059.81;4971694;28;20030;-82
2021/09/10 02:13:56;;;;;;;6.40;5.80;;;;;;;22.11;58.60;97052.50;4960677;28;20033;-82
2021/09/10 02:16:21;;;;;;;7.72;5.80;;;;;;;22.16;58.24;97054.19;5008610;28;20034;-82
2021/09/10 02:18:47;;;;;;;5.88;5.30;;;;;;;22.15;58.71;97058.72;5008625;28;20112;-82
2021/09/10 02:21:12;;;;;;;6.65;5.63;;;;;;;22.18;58.42;97062.59;4998271;28;20113;-82
2021/09/10 02:23:38;;;;;;;6.47;5.88;;;;;;;22.18;57.86;97055.41;4960623;28;20411;-82
2021/09/10 02:26:03;;;;;;;6.38;5.78;;;;;;;22.23;58.01;97060.53;5008435;28;20543;-82
2021/09/10 02:28:28;;;;;;;6.50;5.40;;;;;;;22.21;58.21;97061.97;5008364;28;20042;-82
2021/09/10 02:30:54;;;;;;;6.10;5.53;;;;;;;22.21;58.19;97062.72;4992609;28;20481;-82
2021/09/10 02:33:19;;;;;;;6.68;6.03;;;;;;;22.23;57.76;97065.81;4990147;28;20582;-82
2021/09/10 02:35:45;;;;;;;5.63;5.07;;;;;;;22.25;57.88;97063.63;4972519;28;20389;-82
2021/09/10 02:38:11;;;;;;;5.88;5.43;;;;;;;22.22;57.95;97069.56;4972229;28;20528;-82
2021/09/10 02:40:36;;;;;;;6.25;5.68;;;;;;;22.22;57.99;97066.91;4988502;28;20065;-82
2021/09/10 02:43:02;;;;;;;6.05;5.45;;;;;;;22.18;58.08;97060.72;4988089;28;20061;-82
2021/09/10 02:45:28;;;;;;;5.88;5.38;;;;;;;22.11;58.46;97059.69;4988506;28;20625;-82
2021/09/10 02:47:53;;;;;;;6.13;5.63;;;;;;;22.10;58.48;97055.47;4956399;28;20033;-82
2021/09/10 02:50:18;;;;;;;6.30;5.70;;;;;;;22.04;58.86;97060.19;4972065;28;20343;-82
2021/09/10 02:52:44;;;;;;;6.45;5.88;;;;;;;22.06;58.49;97058.75;4952639;28;20030;-82
2021/09/10 02:55:10;;;;;;;6.05;5.45;;;;;;;22.06;58.18;97053.47;4952512;28;20105;-82
2021/09/10 02:57:35;;;;;;;5.85;5.35;;;;;;;22.05;58.75;97056.44;4953113;28;20031;-82
2021/09/10 03:00:01;;;;;;;6.10;5.50;;;;;;;22.00;58.70;97052.13;4936905;28;20034;-82
2021/09/10 03:02:28;;;;;;;6.57;5.90;;;;;;;21.98;58.93;97058.81;4966366;28;20416;-82
2021/09/10 03:04:54;;;;;;;6.53;5.28;;;;;;;21.96;58.78;97045.88;4970479;28;20073;-82
2021/09/10 03:07:19;;;;;;;6.20;5.60;;;;;;;21.94;58.70;97048.09;4987965;28;20030;-82
2021/09/10 03:09:44;;;;;;;6.43;5.38;;;;;;;21.82;58.96;97051.44;4967968;28;20057;-82
2021/09/10 03:12:10;;;;;;;6.63;5.65;;;;;;;21.82;58.72;97046.13;4977197;28;20092;-82
2021/09/10 03:14:35;;;;;;;6.75;6.15;;;;;;;21.77;59.17;97048.19;4952636;28;20019;-82
2021/09/10 03:17:01;;;;;;;7.05;6.35;;;;;;;21.71;59.00;97044.94;4974254;28;20037;-82
2021/09/10 03:19:27;;;;;;;6.30;5.70;;;;;;;21.64;59.22;97050.75;4994846;28;20019;-82
2021/09/10 03:21:53;;;;;;;6.63;6.03;;;;;;;21.66;59.45;97039.81;4978744;28;20038;-82
2021/09/10 03:24:19;;;;;;;6.13;5.53;;;;;;;21.65;59.44;97049.63;4968535;28;20025;-82
2021/09/10 03:26:44;;;;;;;6.22;5.63;;;;;;;21.70;59.09;97046.81;4978494;28;20038;-82
2021/09/10 03:29:10;;;;;;;6.70;6.03;;;;;;;21.67;59.19;97036.84;4995907;28;20027;-82
2021/09/10 03:31:35;;;;;;;7.07;5.70;;;;;;;21.75;58.95;97037.91;4962296;28;20521;-82
2021/09/10 03:34:01;;;;;;;6.35;5.75;;;;;;;21.77;58.94;97042.88;4974630;28;20022;-82
2021/09/10 03:36:27;;;;;;;6.18;5.38;;;;;;;21.72;59.30;97029.81;4991527;28;20058;-82
2021/09/10 03:38:52;;;;;;;6.03;5.43;;;;;;;21.72;59.34;97035.13;4974988;28;20030;-82
2021/09/10 03:41:18;;;;;;;6.05;5.55;;;;;;;21.73;59.28;97026.84;4974804;28;20035;-82
2021/09/10 03:43:44;;;;;;;7.15;6.45;;;;;;;21.71;59.18;97026.38;4966225;28;20362;-82
2021/09/10 03:46:10;;;;;;;5.78;5.07;;;;;;;21.73;59.27;97026.06;4977616;28;20120;-82
2021/09/10 03:48:35;;;;;;;6.43;5.70;;;;;;;21.71;59.27;97021.06;4946170;28;20022;-82
2021/09/10 03:51:01;;;;;;;6.32;5.63;;;;;;;21.70;59.42;97022.97;4994008;28;20126;-82
2021/09/10 03:53:29;;;;;;;6.35;5.75;;;;;;;21.71;59.46;97029.03;5002031;28;20477;-82
2021/09/10 03:55:57;;;;;;;6.68;6.03;;;;;;;21.72;59.32;97025.28;4962694;28;20031;-82
2021/09/10 03:58:23;;;;;;;7.00;6.28;;;;;;;21.73;59.56;97032.16;4977788;28;20466;-82
2021/09/10 04:00:48;;;;;;;6.43;5.80;;;;;;;21.71;59.34;97021.06;4962001;28;20026;-82
2021/09/10 04:03:14;;;;;;;5.95;5.40;;;;;;;21.73;59.48;97021.56;4961288;28;20026;-82
2021/09/10 04:05:39;;;;;;;6.38;5.72;;;;;;;21.72;59.51;97025.28;4977071;28;20493;-82
2021/09/10 04:08:04;;;;;;;6.88;6.18;;;;;;;21.72;59.55;97024.53;4974318;28;20517;-82
2021/09/10 04:10:30;;;;;;;5.40;4.90;;;;;;;21.74;59.40;97022.31;4991089;28;20067;-82
2021/09/10 04:12:55;;;;;;;6.10;5.53;;;;;;;21.72;59.59;97025.28;4987498;28;20042;-82
2021/09/10 04:15:23;;;;;;;6.60;5.90;;;;;;;21.73;59.45;97021.56;4978079;28;20392;-82
2021/09/10 04:17:49;;;;;;;6.90;6.20;;;;;;;21.67;59.92;97012.22;4977969;28;20057;-82
2021/09/10 04:20:14;;;;;;;10.27;6.00;;;;;;;21.69;59.89;97028.56;4961674;28;20030;-82
2021/09/10 04:22:40;;;;;;;6.18;5.57;;;;;;;21.66;60.01;97014.09;4977538;28;20516;-82
2021/09/10 04:25:06;;;;;;;6.22;5.60;;;;;;;21.64;60.02;97018.16;4976980;28;20050;-82
2021/09/10 04:27:32;;;;;;;7.35;6.65;;;;;;;21.62;60.20;97017.72;4992195;28;20026;-82
2021/09/10 04:29:58;;;;;;;5.97;5.38;;;;;;;21.61;60.36;97018.78;4958811;28;20046;-82
2021/09/10 04:32:24;;;;;;;6.22;5.63;;;;;;;21.61;60.24;97024.88;4958801;28;20479;-82
2021/09/10 04:34:49;;;;;;;5.70;5.03;;;;;;;21.63;59.80;97027.22;4974392;28;20066;-82
2021/09/10 04:37:15;;;;;;;6.68;5.97;;;;;;;21.66;59.87;97022.06;4974348;28;20050;-82
2021/09/10 04:39:40;;;;;;;5.70;5.20;;;;;;;21.67;59.51;97025.47;4970985;28;20022;-82
2021/09/10 04:42:05;;;;;;;6.53;5.93;;;;;;;21.69;59.39;97025.94;4973596;28;20035;-82
2021/09/10 04:44:31;;;;;;;6.55;5.95;;;;;;;21.68;59.65;97035.00;4990214;28;20049;-82
2021/09/10 04:46:56;;;;;;;6.30;5.70;;;;;;;21.64;59.57;97028.75;4990557;28;20030;-82
2021/09/10 04:49:22;;;;;;;5.82;5.32;;;;;;;21.61;59.67;97024.88;4990464;28;20121;-82
2021/09/10 04:51:47;;;;;;;6.78;6.18;;;;;;;21.61;59.85;97024.88;4973862;28;20038;-82
2021/09/10 04:54:15;;;;;;;5.88;5.32;;;;;;;21.57;59.76;97028.50;4974020;28;20499;-82
2021/09/10 04:56:41;;;;;;;5.75;5.25;;;;;;;21.55;59.74;97028.03;4991895;28;20373;-82
2021/09/10 04:59:06;;;;;;;5.97;5.43;;;;;;;21.59;59.80;97018.34;4990091;28;20065;-82
2021/09/10 05:01:32;;;;;;;7.18;6.47;;;;;;;21.58;59.87;97028.16;4989110;28;20031;-82
2021/09/10 05:03:58;;;;;;;6.10;5.60;;;;;;;21.59;59.86;97031.59;4989013;28;20045;-82
2021/09/10 05:06:23;;;;;;;5.50;5.00;;;;;;;21.56;60.02;97030.38;4956409;28;20109;-82
2021/09/10 05:08:49;;;;;;;6.50;5.90;;;;;;;21.56;60.01;97029.56;4989280;28;20066;-82
2021/09/10 05:11:14;;;;;;;6.30;5.70;;;;;;;21.58;59.57;97040.66;4972937;28;20018;-81
2021/09/10 05:13:39;;;;;;;6.63;6.03;;;;;;;21.58;59.54;97030.81;4972172;28;20034;-81
2021/09/10 05:16:05;;;;;;;6.90;5.97;;;;;;;21.62;59.23;97030.97;4971517;28;20113;-81
2021/09/10 05:18:33;;;;;;;6.15;5.57;;;;;;;21.62;59.83;97036.25;4986014;28;20382;-81
2021/09/10 05:20:59;;;;;;;7.07;5.85;;;;;;;21.63;59.54;97037.81;4973071;28;20524;-81
2021/09/10 05:23:25;;;;;;;9.10;5.90;;;;;;;21.68;59.12;97040.28;4965279;28;20121;-81
2021/09/10 05:25:50;;;;;;;6.57;5.97;;;;;;;21.69;59.50;97042.63;4988837;28;20126;-81
2021/09/10 05:28:15;;;;;;;6.20;5.55;;;;;;;21.67;59.82;97044.03;4969708;28;20035;-81
2021/09/10 05:30:41;;;;;;;5.97;5.43;;;;;;;21.66;59.82;97037.97;4956817;28;20026;-81
2021/09/10 05:33:06;;;;;;;6.55;5.82;;;;;;;21.67;60.00;97038.72;4956636;28;20034;-81
2021/09/10 05:35:31;;;;;;;8.10;6.82;;;;;;;21.66;60.05;97040.59;4989791;28;20258;-81
2021/09/10 05:37:57;;;;;;;5.95;5.35;;;;;;;21.67;59.68;97046.69;4969553;28;20069;-81
2021/09/10 05:40:22;;;;;;;7.57;6.18;;;;;;;21.70;59.65;97048.69;4989677;28;20389;-82
2021/09/10 05:42:49;;;;;;;6.03;5.43;;;;;;;21.67;59.50;97047.44;4956467;28;20173;-82
2021/09/10 05:45:14;;;;;;;6.70;6.10;;;;;;;21.72;59.32;97048.38;5005762;28;20042;-82
2021/09/10 05:47:40;;;;;;;6.10;5.47;;;;;;;21.79;59.21;97056.59;4989365;28;20385;-82
2021/09/10 05:50:06;;;;;;;7.28;6.13;;;;;;;21.77;59.50;97054.25;4989353;28;20037;-82
2021/09/10 05:52:31;;;;;;;7.28;5.80;;;;;;;21.81;59.59;97055.16;4953798;28;20034;-81
2021/09/10 05:54:56;;;;;;;6.60;6.00;;;;;;;21.88;59.21;97055.47;4953994;28;20031;-82
2021/09/10 05:57:22;;;;;;;6.63;5.88;;;;;;;21.88;59.53;97050.16;4969646;28;20090;-82
2021/09/10 05:59:47;;;;;;;7.30;5.53;;;;;;;21.99;59.15;97058.50;4953261;28;20037;-82
2021/09/10 06:02:12;;;;;;;6.32;5.72;;;;;;;22.03;59.10;97054.09;4972262;28;20026;-82
2021/09/10 06:04:38;;;;;;;5.63;5.07;;;;;;;22.16;58.68;97054.19;4988517;28;20050;-82
2021/09/10 06:07:03;;;;;;;6.68;5.97;;;;;;;22.21;57.99;97056.66;4960411;28;20038;-82
2021/09/10 06:09:29;;;;;;;6.90;6.20;;;;;;;22.21;57.47;97057.44;4948864;28;20027;-82
2021/09/10 06:11:54;;;;;;;6.43;5.57;;;;;;;22.29;57.60;97053.19;4940054;28;20493;-82
2021/09/10 06:14:19;;;;;;;6.63;5.82;;;;;;;22.31;57.58;97056.31;4985152;28;20232;-82
2021/09/10 06:16:45;;;;;;;6.07;5.53;;;;;;;22.31;57.66;97066.13;4969444;28;20560;-82
2021/09/10 06:19:10;;;;;;;6.13;5.40;;;;;;;22.28;58.13;97066.75;4984363;28;20473;-82
2021/09/10 06:21:35;;;;;;;6.60;5.63;;;;;;;22.36;58.05;97066.72;4989790;28;20470;-82
2021/09/10 06:24:01;;;;;;;5.95;5.35;;;;;;;22.29;57.80;97068.31;4956068;28;20374;-82
2021/09/10 06:26:26;;;;;;;6.80;5.60;;;;;;;22.35;58.16;97061.72;4988529;28;20473;-81
2021/09/10 06:28:52;;;;;;;6.15;5.55;;;;;;;22.36;58.15;97074.69;4972138;28;20034;-82
2021/09/10 06:31:17;;;;;;;6.28;5.78;;;;;;;22.35;58.25;97065.16;4971897;28;20034;-81
2021/09/10 06:33:42;;;;;;;5.95;5.45;;;;;;;22.37;58.76;97078.09;5004923;28;20031;-81
2021/09/10 06:36:08;;;;;;;6.65;6.05;;;;;;;22.34;57.86;97078.75;4972047;28;20234;-81
2021/09/10 06:38:33;;;;;;;6.93;6.32;;;;;;;22.32;57.67;97078.28;4956431;28;20034;-81
2021/09/10 06:40:58;;;;;;;6.35;5.75;;;;;;;22.28;58.32;97072.84;4958351;28;20391;-81
2021/09/10 06:43:24;;;;;;;5.85;5.35;;;;;;;22.39;57.96;97074.00;4962408;28;20039;-82
2021/09/10 06:45:49;;;;;;;7.35;6.47;;;;;;;22.38;58.28;97074.31;4936525;28;20031;-82
2021/09/10 06:48:15;;;;;;;5.80;5.25;;;;;;;22.43;57.62;97069.63;4980699;28;20089;-82
2021/09/10 06:50:40;;;;;;;6.70;6.10;;;;;;;22.51;57.93;97078.59;4987585;28;20022;-82
2021/09/10 06:53:08;;;;;;;6.90;6.30;;;;;;;22.39;58.34;97079.31;4990488;28;20037;-82
2021/09/10 06:55:34;;;;;;;6.25;5.65;;;;;;;22.51;57.96;97088.44;4987899;28;20109;-82
2021/09/10 06:58:00;;;;;;;6.90;6.13;;;;;;;22.50;58.32;97079.72;4955565;28;20543;-82
2021/09/10 07:00:25;;;;;;;6.47;5.85;;;;;;;22.49;58.34;97088.78;4970235;28;20034;-82
2021/09/10 07:02:51;;;;;;;7.38;6.45;;;;;;;22.50;58.70;97100.16;4987290;28;20464;-82
2021/09/10 07:05:16;;;;;;;5.93;5.43;;;;;;;22.47;58.32;97093.63;4954716;28;20540;-82
2021/09/10 07:07:41;;;;;;;6.88;6.28;;;;;;;22.49;58.04;97101.25;4955600;28;20465;-82
2021/09/10 07:10:07;;;;;;;7.30;6.60;;;;;;;22.36;58.41;97101.19;4970954;28;20041;-82
2021/09/10 07:12:33;;;;;;;7.00;6.40;;;;;;;22.33;58.91;97106.34;4970445;28;20103;-81
2021/09/10 07:14:58;;;;;;;6.50;5.90;;;;;;;22.17;58.39;97120.16;4987565;28;20042;-82
2021/09/10 07:17:24;;;;;;;6.10;5.60;;;;;;;22.21;58.40;97118.44;4984614;28;20397;-82
2021/09/10 07:19:49;;;;;;;7.03;5.95;;;;;;;22.13;59.41;97119.25;4971386;28;20035;-81
2021/09/10 07:22:15;;;;;;;8.52;6.03;;;;;;;22.12;59.74;97122.97;4955456;28;20042;-81
2021/09/10 07:24:40;;;;;;;6.57;5.97;;;;;;;22.12;60.44;97128.28;4986848;28;20042;-81
2021/09/10 07:27:06;;;;;;;7.18;6.47;;;;;;;22.00;61.27;97118.41;4986925;28;20402;-80
2021/09/10 07:29:31;;;;;;;7.25;6.60;;;;;;;21.90;61.92;97126.72;4955293;28;20548;-81
2021/09/10 07:31:56;;;;;;;7.55;6.82;;;;;;;21.83;62.07;97123.75;4955324;28;20042;-80
2021/09/10 07:34:22;;;;;;;7.97;6.82;;;;;;;21.70;63.04;97128.19;4986851;28;20062;-80
2021/09/10 07:36:52;;;;;;;7.45;6.70;;;;;;;21.63;63.44;97138.50;4987302;28;20034;-80
2021/09/10 07:39:19;;;;;;;6.57;5.97;;;;;;;21.56;63.99;97136.34;4968164;28;20193;-80
2021/09/10 07:41:45;;;;;;;7.28;6.57;;;;;;;21.59;64.07;97137.56;4982932;28;20035;-80
2021/09/10 07:44:10;;;;;;;6.57;5.97;;;;;;;21.63;63.99;97130.56;4970841;28;20120;-80
2021/09/10 07:46:35;;;;;;;7.50;6.47;;;;;;;21.73;63.63;97130.22;4970831;28;20030;-81
2021/09/10 07:49:01;;;;;;;7.35;6.63;;;;;;;21.71;63.85;97137.69;4971100;28;20041;-81
2021/09/10 07:51:26;;;;;;;7.22;6.53;;;;;;;21.74;64.04;97139.69;4988063;28;20400;-80
2021/09/10 07:53:51;;;;;;;7.47;6.75;;;;;;;21.80;63.93;97143.75;4960544;28;20041;-80
2021/09/10 07:56:17;;;;;;;6.88;6.18;;;;;;;21.77;63.57;97144.38;4986935;28;20045;-80
2021/09/10 07:58:42;;;;;;;7.68;6.85;;;;;;;21.87;63.75;97149.31;4970235;28;20053;-80
2021/09/10 08:01:07;;;;;;;7.85;6.60;;;;;;;21.91;63.72;97149.44;4950756;28;20051;-80
2021/09/10 08:03:34;;;;;;;8.20;7.40;;;;;;;21.98;63.95;97148.97;4954324;28;20031;-80
2021/09/10 08:05:59;;;;;;;7.93;7.00;;;;;;;22.00;64.07;97152.84;4971674;28;20046;-80
2021/09/10 08:08:24;;;;;;;8.55;7.75;;;;;;;22.03;64.42;97157.50;4955184;28;20035;-80
2021/09/10 08:10:50;;;;;;;7.90;7.20;;;;;;;22.05;64.43;97149.22;4968852;28;20444;-80
2021/09/10 08:13:15;;;;;;;8.27;7.18;;;;;;;22.11;64.26;97153.28;4989796;28;20030;-80
2021/09/10 08:15:40;;;;;;;8.27;7.10;;;;;;;22.10;64.51;97151.69;4955241;28;20034;-80
2021/09/10 08:18:06;;;;;;;8.75;7.85;;;;;;;22.19;63.94;97155.09;4963469;28;20057;-80
2021/09/10 08:20:31;;;;;;;8.70;7.65;;;;;;;22.19;63.84;97155.09;4989425;28;20063;-80
2021/09/10 08:22:57;;;;;;;8.70;7.65;;;;;;;22.24;63.86;97152.28;4988117;28;20496;-80
2021/09/10 08:25:22;;;;;;;7.70;6.93;;;;;;;22.22;64.05;97164.28;4953573;28;20121;-80
2021/09/10 08:27:47;;;;;;;8.05;7.30;;;;;;;22.25;64.04;97156.47;4988516;28;20440;-80
2021/09/10 08:30:13;;;;;;;7.63;6.75;;;;;;;22.23;63.79;97166.63;4979929;28;20034;-80
2021/09/10 08:32:38;;;;;;;7.20;6.50;;;;;;;22.23;63.17;97166.63;4957452;28;20699;-80
2021/09/10 08:37:33;;;;;;;8.15;7.35;;;;;;;22.24;63.44;97170.84;5012922;23;20054;-80
2021/09/10 08:39:58;;;;;;;8.00;7.10;;;;;;;22.22;63.58;97170.34;4959715;28;20056;-80
2021/09/10 08:42:24;;;;;;;9.63;7.88;;;;;;;22.25;64.20;97180.31;4991475;28;20651;-80
2021/09/10 08:44:49;;;;;;;8.73;7.82;;;;;;;22.23;63.54;97174.56;4992869;28;20030;-80
2021/09/10 08:47:15;;;;;;;8.60;7.80;;;;;;;22.17;63.53;97167.88;4942719;28;20034;-80
2021/09/10 08:49:41;;;;;;;8.88;7.97;;;;;;;22.24;64.02;97178.00;4975001;28;20481;-80
2021/09/10 08:52:07;;;;;;;9.35;8.32;;;;;;;22.23;63.96;97182.53;4943263;28;20049;-80
2021/09/10 08:54:33;;;;;;;9.52;8.63;;;;;;;22.31;63.96;97172.22;4959234;28;20505;-80
2021/09/10 08:56:59;;;;;;;9.43;8.43;;;;;;;22.33;64.20;97176.13;4975257;28;20057;-80
2021/09/10 08:59:25;;;;;;;10.15;9.25;;;;;;;22.36;64.04;97180.78;4958050;28;20033;-80
2021/09/10 09:01:53;;;;;;;9.27;8.48;;;;;;;22.36;63.94;97174.69;4938329;28;20658;-80
2021/09/10 09:04:20;;;;;;;9.45;8.50;;;;;;;22.34;64.49;97172.34;4958696;28;20037;-80
2021/09/10 09:06:50;;;;;;;9.98;8.85;;;;;;;22.50;63.92;97182.41;4975059;28;20536;-80
2021/09/10 09:09:39;;;;;;;9.32;8.43;;;;;;;22.47;64.27;97183.06;4958476;28;20054;-80
2021/09/10 09:12:15;;;;;;;9.40;8.55;;;;;;;22.65;64.30;97183.72;4974732;28;20041;-80
2021/09/10 09:14:55;;;;;;;8.75;7.95;;;;;;;22.76;63.78;97179.59;4958944;28;20061;-79
2021/09/10 09:17:33;;;;;;;8.90;8.07;;;;;;;22.91;62.86;97184.31;4957640;28;20543;-80
2021/09/10 09:20:11;;;;;;;8.88;7.97;;;;;;;22.93;62.46;97182.09;4974390;28;20425;-80
2021/09/10 09:23:06;;;;;;;8.68;7.88;;;;;;;22.91;62.77;97173.69;4976475;28;20047;-80
2021/09/10 09:25:33;;;;;;;8.50;7.70;;;;;;;23.29;61.92;97185.28;4955697;28;20034;-80
2021/09/10 09:28:33;;;;;;;9.88;8.93;;;;;;;23.25;62.73;97182.47;4971305;28;20583;-80
2021/09/10 09:31:04;;;;;;;8.70;7.80;;;;;;;23.54;60.97;97173.63;4971265;28;20039;-80
2021/09/10 09:33:32;;;;;;;9.88;8.32;;;;;;;23.69;61.41;97171.41;4954827;28;20031;-80
2021/09/10 09:35:59;;;;;;;8.68;7.88;;;;;;;23.93;60.24;97171.47;4935991;29;20039;-80
2021/09/10 09:38:33;;;;;;;8.30;7.53;;;;;;;24.08;60.78;97175.34;4937563;28;20039;-80
2021/09/10 09:41:05;;;;;;;9.23;8.32;;;;;;;24.43;61.23;97180.19;4920116;29;20032;-80
2021/09/10 09:43:33;;;;;;;8.45;7.65;;;;;;;24.93;58.16;97182.78;4936029;29;20126;-80
2021/09/10 09:45:59;;;;;;;9.07;8.05;;;;;;;25.14;57.20;97175.41;4951899;29;20138;-81
2021/09/10 09:48:28;;;;;;;8.40;7.60;;;;;;;25.15;58.09;97170.84;4935871;29;20033;-80
2021/09/10 09:50:55;;;;;;;7.90;7.20;;;;;;;25.30;56.34;97172.78;4917460;28;20049;-80
2021/09/10 09:53:24;;;;;;;7.95;7.05;;;;;;;25.35;57.12;97177.88;4919316;29;20529;-80
2021/09/10 09:55:50;;;;;;;8.43;7.65;;;;;;;25.34;56.12;97180.88;4952305;28;20510;-80
2021/09/10 09:58:17;;;;;;;8.23;7.43;;;;;;;25.21;55.84;97174.81;4939044;28;20066;-81
2021/09/10 10:00:46;;;;;;;8.85;8.05;;;;;;;25.04;56.83;97175.88;4940131;29;20035;-80
2021/09/10 10:03:15;;;;;;;8.43;7.60;;;;;;;24.89;57.22;97182.69;4942113;28;20041;-80
2021/09/10 10:06:02;;;;;;;8.48;7.68;;;;;;;24.64;56.76;97180.09;4968718;28;20034;-80
2021/09/10 10:08:31;;;;;;;8.18;7.38;;;;;;;24.79;56.28;97169.84;4938346;28;20097;-81
2021/09/10 10:11:04;;;;;;;8.40;7.70;;;;;;;24.45;57.56;97170.03;4955931;28;20513;-80
2021/09/10 10:13:31;;;;;;;8.20;7.40;;;;;;;24.56;56.97;97173.00;4946311;28;20042;-80
2021/09/10 10:15:57;;;;;;;8.63;7.82;;;;;;;24.37;57.45;97168.25;4945583;28;20041;-80
2021/09/10 10:18:44;;;;;;;9.00;8.20;;;;;;;24.32;57.49;97168.47;4919695;29;20027;-80
2021/09/10 10:21:11;;;;;;;8.25;7.45;;;;;;;24.73;55.52;97166.66;4903654;29;20031;-80
2021/09/10 10:23:42;;;;;;;8.07;7.35;;;;;;;24.67;56.28;97168.00;4919904;29;20463;-81
2021/09/10 10:26:33;;;;;;;8.95;8.15;;;;;;;24.59;56.10;97171.56;4935500;28;20027;-80
2021/09/10 10:29:13;;;;;;;8.70;7.75;;;;;;;24.86;54.75;97167.38;4941400;28;20023;-80
2021/09/10 10:32:01;;;;;;;8.18;7.47;;;;;;;24.94;55.71;97168.38;4973508;28;20062;-80
2021/09/10 10:34:30;;;;;;;8.90;8.00;;;;;;;25.31;53.50;97179.69;4973769;28;20026;-80
2021/09/10 10:36:55;;;;;;;10.13;9.13;;;;;;;25.26;55.42;97171.13;4973414;28;20042;-81
2021/09/10 10:39:32;;;;;;;8.90;8.00;;;;;;;25.32;55.32;97169.78;4973267;28;20084;-80
2021/09/10 10:42:00;;;;;;;8.85;8.05;;;;;;;25.29;53.85;97170.47;4973636;28;20034;-80
2021/09/10 10:44:37;;;;;;;8.30;7.50;;;;;;;25.41;55.00;97170.41;4946291;28;20035;-81
2021/09/10 10:47:14;;;;;;;8.45;7.65;;;;;;;25.52;55.58;97168.78;4937997;28;20031;-80
2021/09/10 10:49:41;;;;;;;8.65;7.90;;;;;;;25.58;53.38;97162.09;4937877;28;20471;-80
2021/09/10 10:52:36;;;;;;;9.15;8.18;;;;;;;25.38;53.18;97163.88;4953949;28;20065;-80
2021/09/10 10:55:18;;;;;;;8.60;7.80;;;;;;;25.49;52.76;97169.47;4954139;28;20034;-80
2021/09/10 10:57:44;;;;;;;8.45;7.65;;;;;;;25.74;51.19;97158.66;4937436;28;20073;-80
2021/09/10 11:00:28;;;;;;;8.60;7.80;;;;;;;25.50;52.79;97165.69;4934505;29;20535;-81
2021/09/10 11:03:18;;;;;;;8.77;7.97;;;;;;;25.90;51.99;97156.75;4933098;29;20043;-81
2021/09/10 11:05:45;;;;;;;8.65;7.20;;;;;;;26.30;49.55;97145.13;4932627;29;20324;-81
2021/09/10 11:08:17;;;;;;;8.80;7.97;;;;;;;26.40;49.04;97148.34;4917490;29;20134;-80
2021/09/10 11:10:42;;;;;;;8.55;7.72;;;;;;;26.65;48.51;97139.00;4951575;28;20049;-80
2021/09/10 11:13:10;;;;;;;8.98;8.18;;;;;;;26.84;49.45;97148.16;4932580;29;20121;-80
2021/09/10 11:15:36;;;;;;;8.52;7.60;;;;;;;27.17;50.22;97149.53;4934833;28;20083;-80
2021/09/10 11:18:07;;;;;;;7.75;7.05;;;;;;;27.36;47.57;97151.41;4920367;28;20104;-80
2021/09/10 11:20:43;;;;;;;8.02;7.32;;;;;;;27.22;47.67;97155.34;4934914;28;20518;-80
2021/09/10 11:23:10;;;;;;;9.13;8.18;;;;;;;27.33;47.22;97152.88;4967622;28;20034;-81
2021/09/10 11:25:47;;;;;;;8.65;7.95;;;;;;;27.00;48.54;97150.72;4952051;28;20089;-81
2021/09/10 11:28:12;;;;;;;8.07;7.38;;;;;;;27.24;48.87;97149.66;4919722;28;20031;-80
2021/09/10 11:30:38;;;;;;;7.70;7.10;;;;;;;27.40;48.02;97154.91;4935651;28;20041;-80
2021/09/10 11:33:03;;;;;;;7.88;7.18;;;;;;;27.27;48.45;97148.94;4951586;28;20474;-80
2021/09/10 11:35:32;;;;;;;8.90;8.10;;;;;;;27.10;49.33;97155.50;4951361;28;20039;-80